Terminal Aerodrome Forecast
Issued by NWS Wilmington, OH

Current Version | Previous Version | Graphics & Text | Print | Product List | Glossary On
Versions: 1 2 3 4 5 6 7 8 9 10 11 12 13 14 15 16 17 18 19 20 21 22 23 24 25 26
000
FTUS41 KILN 261300 AAA
TAFCVG
TAF AMD
KCVG 261301Z 2613/2718 36011G20KT 2SM -RA BR BKN005 BKN010 OVC024
     FM261600 32011G20KT 5SM BR OVC010
     FM261800 32011G20KT P6SM OVC022
     FM262300 32011G20KT P6SM SCT035 BKN100
     FM270800 32006KT P6SM BKN050=

USA.gov is the U.S. government's official web portal to all federal, state and local government web resources and services.